sensor_id;sensor_type;location;lat;lon;timestamp;temperature;humidity
33903;DHT22;20194;50.950;5.346;2022-12-20T00:01:11;12.40;10.30
33903;DHT22;20194;50.950;5.346;2022-12-20T00:03:37;12.40;10.30
33903;DHT22;20194;50.950;5.346;2022-12-20T00:06:04;12.40;9.80
33903;DHT22;20194;50.950;5.346;2022-12-20T00:08:31;12.50;8.60
33903;DHT22;20194;50.950;5.346;2022-12-20T00:10:59;12.50;9.10
33903;DHT22;20194;50.950;5.346;2022-12-20T00:13:25;12.40;9.00
33903;DHT22;20194;50.950;5.346;2022-12-20T00:18:30;12.30;12.00
33903;DHT22;20194;50.950;5.346;2022-12-20T00:21:00;12.30;12.00
33903;DHT22;20194;50.950;5.346;2022-12-20T00:23:27;12.30;13.00
33903;DHT22;20194;50.950;5.346;2022-12-20T00:26:00;12.30;12.00
33903;DHT22;20194;50.950;5.346;2022-12-20T00:28:26;12.30;11.50
33903;DHT22;20194;50.950;5.346;2022-12-20T00:30:53;12.30;11.90
33903;DHT22;20194;50.950;5.346;2022-12-20T00:33:19;12.40;12.00
33903;DHT22;20194;50.950;5.346;2022-12-20T00:35:44;12.40;11.60
33903;DHT22;20194;50.950;5.346;2022-12-20T00:38:10;12.40;11.00
33903;DHT22;20194;50.950;5.346;2022-12-20T00:40:36;12.40;11.90
33903;DHT22;20194;50.950;5.346;2022-12-20T00:43:01;12.40;11.30
33903;DHT22;20194;50.950;5.346;2022-12-20T00:45:27;12.40;13.10
33903;DHT22;20194;50.950;5.346;2022-12-20T00:47:52;12.40;13.40
33903;DHT22;20194;50.950;5.346;2022-12-20T00:50:18;12.40;15.30
33903;DHT22;20194;50.950;5.346;2022-12-20T00:52:44;12.40;16.50
33903;DHT22;20194;50.950;5.346;2022-12-20T00:55:09;12.30;17.80
33903;DHT22;20194;50.950;5.346;2022-12-20T00:57:35;12.30;19.40
33903;DHT22;20194;50.950;5.346;2022-12-20T01:00:01;12.20;20.10
33903;DHT22;20194;50.950;5.346;2022-12-20T01:02:26;12.20;21.30
33903;DHT22;20194;50.950;5.346;2022-12-20T01:04:52;12.20;22.60
33903;DHT22;20194;50.950;5.346;2022-12-20T01:07:17;12.20;22.00
33903;DHT22;20194;50.950;5.346;2022-12-20T01:09:44;12.20;21.30
33903;DHT22;20194;50.950;5.346;2022-12-20T01:12:10;12.20;22.80
33903;DHT22;20194;50.950;5.346;2022-12-20T01:14:36;12.10;22.70
33903;DHT22;20194;50.950;5.346;2022-12-20T01:17:01;12.20;22.90
33903;DHT22;20194;50.950;5.346;2022-12-20T01:19:27;12.20;23.40
33903;DHT22;20194;50.950;5.346;2022-12-20T01:21:52;12.20;24.00
33903;DHT22;20194;50.950;5.346;2022-12-20T01:24:19;12.10;25.60
33903;DHT22;20194;50.950;5.346;2022-12-20T01:26:45;12.10;26.30
33903;DHT22;20194;50.950;5.346;2022-12-20T01:29:11;12.00;27.70
33903;DHT22;20194;50.950;5.346;2022-12-20T01:31:38;12.10;29.30
33903;DHT22;20194;50.950;5.346;2022-12-20T01:34:04;12.10;30.10
33903;DHT22;20194;50.950;5.346;2022-12-20T01:36:32;12.10;29.20
33903;DHT22;20194;50.950;5.346;2022-12-20T01:39:20;12.10;29.40
33903;DHT22;20194;50.950;5.346;2022-12-20T01:41:46;12.10;29.70
33903;DHT22;20194;50.950;5.346;2022-12-20T01:46:48;12.10;29.80
33903;DHT22;20194;50.950;5.346;2022-12-20T01:51:56;12.00;33.40
33903;DHT22;20194;50.950;5.346;2022-12-20T01:54:34;12.00;35.70
33903;DHT22;20194;50.950;5.346;2022-12-20T01:57:29;11.90;34.80
33903;DHT22;20194;50.950;5.346;2022-12-20T01:59:56;11.90;34.00
33903;DHT22;20194;50.950;5.346;2022-12-20T02:02:23;12.00;34.10
33903;DHT22;20194;50.950;5.346;2022-12-20T02:04:49;12.00;31.20
33903;DHT22;20194;50.950;5.346;2022-12-20T02:07:23;12.00;33.30
33903;DHT22;20194;50.950;5.346;2022-12-20T02:09:50;12.00;31.20
33903;DHT22;20194;50.950;5.346;2022-12-20T02:12:23;12.00;29.90
33903;DHT22;20194;50.950;5.346;2022-12-20T02:15:20;12.00;30.30
33903;DHT22;20194;50.950;5.346;2022-12-20T02:18:10;12.00;30.50
33903;DHT22;20194;50.950;5.346;2022-12-20T02:20:53;12.00;29.20
33903;DHT22;20194;50.950;5.346;2022-12-20T02:26:48;12.00;30.10
33903;DHT22;20194;50.950;5.346;2022-12-20T02:32:19;12.00;31.30
33903;DHT22;20194;50.950;5.346;2022-12-20T02:34:47;12.00;33.20
33903;DHT22;20194;50.950;5.346;2022-12-20T02:37:13;11.90;35.80
33903;DHT22;20194;50.950;5.346;2022-12-20T02:39:41;11.90;37.30
33903;DHT22;20194;50.950;5.346;2022-12-20T02:42:09;11.80;37.60
33903;DHT22;20194;50.950;5.346;2022-12-20T02:44:38;11.80;38.00
33903;DHT22;20194;50.950;5.346;2022-12-20T02:50:27;11.80;37.90
33903;DHT22;20194;50.950;5.346;2022-12-20T02:52:55;11.80;40.00
33903;DHT22;20194;50.950;5.346;2022-12-20T02:55:46;11.70;40.70
33903;DHT22;20194;50.950;5.346;2022-12-20T02:58:33;11.80;42.70
33903;DHT22;20194;50.950;5.346;2022-12-20T03:01:04;11.80;42.90
33903;DHT22;20194;50.950;5.346;2022-12-20T03:03:34;11.70;45.30
33903;DHT22;20194;50.950;5.346;2022-12-20T03:06:00;11.60;45.90
33903;DHT22;20194;50.950;5.346;2022-12-20T03:08:26;11.70;45.10
33903;DHT22;20194;50.950;5.346;2022-12-20T03:10:53;11.70;44.40
33903;DHT22;20194;50.950;5.346;2022-12-20T03:13:21;11.70;44.60
33903;DHT22;20194;50.950;5.346;2022-12-20T03:15:46;11.60;43.50
33903;DHT22;20194;50.950;5.346;2022-12-20T03:18:12;11.70;43.50
33903;DHT22;20194;50.950;5.346;2022-12-20T03:20:38;11.70;43.20
33903;DHT22;20194;50.950;5.346;2022-12-20T03:23:04;11.70;42.90
33903;DHT22;20194;50.950;5.346;2022-12-20T03:25:30;11.70;42.10
33903;DHT22;20194;50.950;5.346;2022-12-20T03:27:56;11.70;42.90
33903;DHT22;20194;50.950;5.346;2022-12-20T03:30:22;11.70;43.30
33903;DHT22;20194;50.950;5.346;2022-12-20T03:32:48;11.70;42.20
33903;DHT22;20194;50.950;5.346;2022-12-20T03:35:13;11.80;43.10
33903;DHT22;20194;50.950;5.346;2022-12-20T03:37:39;11.70;42.00
33903;DHT22;20194;50.950;5.346;2022-12-20T03:40:06;11.70;42.40
33903;DHT22;20194;50.950;5.346;2022-12-20T03:42:32;11.70;42.00
33903;DHT22;20194;50.950;5.346;2022-12-20T03:44:57;11.70;42.00
33903;DHT22;20194;50.950;5.346;2022-12-20T03:47:23;11.70;42.80
33903;DHT22;20194;50.950;5.346;2022-12-20T03:49:49;11.70;43.80
33903;DHT22;20194;50.950;5.346;2022-12-20T03:52:16;11.70;44.90
33903;DHT22;20194;50.950;5.346;2022-12-20T03:54:42;11.70;45.60
33903;DHT22;20194;50.950;5.346;2022-12-20T03:57:08;11.70;46.50
33903;DHT22;20194;50.950;5.346;2022-12-20T03:59:34;11.70;48.80
33903;DHT22;20194;50.950;5.346;2022-12-20T04:02:00;11.60;50.10
33903;DHT22;20194;50.950;5.346;2022-12-20T04:04:26;11.60;50.90
33903;DHT22;20194;50.950;5.346;2022-12-20T04:06:52;11.60;51.20
33903;DHT22;20194;50.950;5.346;2022-12-20T04:09:17;11.60;50.50
33903;DHT22;20194;50.950;5.346;2022-12-20T04:11:43;11.70;50.60
33903;DHT22;20194;50.950;5.346;2022-12-20T04:14:09;11.60;49.10
33903;DHT22;20194;50.950;5.346;2022-12-20T04:16:35;11.70;48.40
33903;DHT22;20194;50.950;5.346;2022-12-20T04:19:00;11.70;48.50
33903;DHT22;20194;50.950;5.346;2022-12-20T04:21:32;11.60;47.80
33903;DHT22;20194;50.950;5.346;2022-12-20T04:23:59;11.60;47.70
33903;DHT22;20194;50.950;5.346;2022-12-20T04:26:25;11.60;47.20
33903;DHT22;20194;50.950;5.346;2022-12-20T04:28:51;11.60;45.90
33903;DHT22;20194;50.950;5.346;2022-12-20T04:31:17;11.70;44.50
33903;DHT22;20194;50.950;5.346;2022-12-20T04:33:44;11.70;43.10
33903;DHT22;20194;50.950;5.346;2022-12-20T04:36:10;11.70;43.50
33903;DHT22;20194;50.950;5.346;2022-12-20T04:38:36;11.70;42.50
33903;DHT22;20194;50.950;5.346;2022-12-20T04:41:01;11.70;41.00
33903;DHT22;20194;50.950;5.346;2022-12-20T04:43:27;11.70;41.20
33903;DHT22;20194;50.950;5.346;2022-12-20T04:45:54;11.70;40.50
33903;DHT22;20194;50.950;5.346;2022-12-20T04:48:25;11.80;39.10
33903;DHT22;20194;50.950;5.346;2022-12-20T04:50:54;11.80;39.40
33903;DHT22;20194;50.950;5.346;2022-12-20T04:53:21;11.80;39.10
33903;DHT22;20194;50.950;5.346;2022-12-20T04:56:06;11.80;37.20
33903;DHT22;20194;50.950;5.346;2022-12-20T04:58:32;11.80;37.10
33903;DHT22;20194;50.950;5.346;2022-12-20T05:00:58;11.90;36.10
33903;DHT22;20194;50.950;5.346;2022-12-20T05:03:24;11.80;33.90
33903;DHT22;20194;50.950;5.346;2022-12-20T05:05:51;11.90;33.50
33903;DHT22;20194;50.950;5.346;2022-12-20T05:08:17;11.90;34.30
33903;DHT22;20194;50.950;5.346;2022-12-20T05:10:43;11.90;31.60
33903;DHT22;20194;50.950;5.346;2022-12-20T05:13:09;11.90;31.60
33903;DHT22;20194;50.950;5.346;2022-12-20T05:15:35;12.00;30.30
33903;DHT22;20194;50.950;5.346;2022-12-20T05:18:01;12.00;30.50
33903;DHT22;20194;50.950;5.346;2022-12-20T05:20:28;12.00;30.70
33903;DHT22;20194;50.950;5.346;2022-12-20T05:22:54;12.00;29.00
33903;DHT22;20194;50.950;5.346;2022-12-20T05:25:46;12.10;28.10
33903;DHT22;20194;50.950;5.346;2022-12-20T05:28:31;12.00;27.30
33903;DHT22;20194;50.950;5.346;2022-12-20T05:30:57;12.00;28.00
33903;DHT22;20194;50.950;5.346;2022-12-20T05:33:23;12.00;27.80
33903;DHT22;20194;50.950;5.346;2022-12-20T05:35:48;12.10;27.30
33903;DHT22;20194;50.950;5.346;2022-12-20T05:38:14;12.10;26.60
33903;DHT22;20194;50.950;5.346;2022-12-20T05:40:40;12.10;26.40
33903;DHT22;20194;50.950;5.346;2022-12-20T05:43:06;12.10;25.50
33903;DHT22;20194;50.950;5.346;2022-12-20T05:45:32;12.10;26.10
33903;DHT22;20194;50.950;5.346;2022-12-20T05:47:58;12.10;25.90
33903;DHT22;20194;50.950;5.346;2022-12-20T05:50:24;12.10;25.80
33903;DHT22;20194;50.950;5.346;2022-12-20T05:52:50;12.10;25.90
33903;DHT22;20194;50.950;5.346;2022-12-20T05:55:16;12.10;25.20
33903;DHT22;20194;50.950;5.346;2022-12-20T05:57:41;12.10;25.50
33903;DHT22;20194;50.950;5.346;2022-12-20T06:00:08;12.10;24.20
33903;DHT22;20194;50.950;5.346;2022-12-20T06:02:34;12.10;24.30
33903;DHT22;20194;50.950;5.346;2022-12-20T06:05:00;12.10;23.70
33903;DHT22;20194;50.950;5.346;2022-12-20T06:07:27;12.10;24.00
33903;DHT22;20194;50.950;5.346;2022-12-20T06:09:56;12.10;23.00
33903;DHT22;20194;50.950;5.346;2022-12-20T06:12:22;12.10;24.10
33903;DHT22;20194;50.950;5.346;2022-12-20T06:14:48;12.10;24.10
33903;DHT22;20194;50.950;5.346;2022-12-20T06:17:13;12.10;23.40
33903;DHT22;20194;50.950;5.346;2022-12-20T06:19:39;12.20;22.00
33903;DHT22;20194;50.950;5.346;2022-12-20T06:22:08;12.20;23.30
33903;DHT22;20194;50.950;5.346;2022-12-20T06:24:34;12.20;22.60
33903;DHT22;20194;50.950;5.346;2022-12-20T06:27:00;12.20;22.30
33903;DHT22;20194;50.950;5.346;2022-12-20T06:29:28;12.10;22.90
33903;DHT22;20194;50.950;5.346;2022-12-20T06:31:54;12.10;22.10
33903;DHT22;20194;50.950;5.346;2022-12-20T06:34:20;12.10;23.20
33903;DHT22;20194;50.950;5.346;2022-12-20T06:36:46;12.20;22.90
33903;DHT22;20194;50.950;5.346;2022-12-20T06:39:12;12.20;21.60
33903;DHT22;20194;50.950;5.346;2022-12-20T06:41:39;12.20;21.00
33903;DHT22;20194;50.950;5.346;2022-12-20T06:44:05;12.30;20.40
33903;DHT22;20194;50.950;5.346;2022-12-20T06:46:31;12.20;20.20
33903;DHT22;20194;50.950;5.346;2022-12-20T06:48:56;12.20;21.10
33903;DHT22;20194;50.950;5.346;2022-12-20T06:51:22;12.20;21.80
33903;DHT22;20194;50.950;5.346;2022-12-20T06:53:48;12.20;20.70
33903;DHT22;20194;50.950;5.346;2022-12-20T06:56:14;12.20;20.00
33903;DHT22;20194;50.950;5.346;2022-12-20T06:58:40;12.10;22.00
33903;DHT22;20194;50.950;5.346;2022-12-20T07:01:05;12.10;23.20
33903;DHT22;20194;50.950;5.346;2022-12-20T07:03:31;12.10;23.90
33903;DHT22;20194;50.950;5.346;2022-12-20T07:05:57;12.10;23.20
33903;DHT22;20194;50.950;5.346;2022-12-20T07:08:23;12.00;22.80
33903;DHT22;20194;50.950;5.346;2022-12-20T07:10:50;12.10;22.70
33903;DHT22;20194;50.950;5.346;2022-12-20T07:13:18;12.10;22.80
33903;DHT22;20194;50.950;5.346;2022-12-20T07:15:44;12.20;21.30
33903;DHT22;20194;50.950;5.346;2022-12-20T07:18:10;12.10;20.70
33903;DHT22;20194;50.950;5.346;2022-12-20T07:20:35;12.20;21.30
33903;DHT22;20194;50.950;5.346;2022-12-20T07:23:01;12.20;20.90
33903;DHT22;20194;50.950;5.346;2022-12-20T07:25:27;12.30;21.40
33903;DHT22;20194;50.950;5.346;2022-12-20T07:27:53;12.20;19.60
33903;DHT22;20194;50.950;5.346;2022-12-20T07:30:19;12.30;19.10
33903;DHT22;20194;50.950;5.346;2022-12-20T07:32:45;12.20;19.00
33903;DHT22;20194;50.950;5.346;2022-12-20T07:35:11;12.30;19.80
33903;DHT22;20194;50.950;5.346;2022-12-20T07:37:37;12.30;19.70
33903;DHT22;20194;50.950;5.346;2022-12-20T07:40:04;12.30;19.90
33903;DHT22;20194;50.950;5.346;2022-12-20T07:42:30;12.30;20.00
33903;DHT22;20194;50.950;5.346;2022-12-20T07:44:56;12.30;19.70
33903;DHT22;20194;50.950;5.346;2022-12-20T07:47:21;12.40;19.80
33903;DHT22;20194;50.950;5.346;2022-12-20T07:49:47;12.30;21.90
33903;DHT22;20194;50.950;5.346;2022-12-20T07:52:18;12.30;21.80
33903;DHT22;20194;50.950;5.346;2022-12-20T07:54:53;12.20;22.10
33903;DHT22;20194;50.950;5.346;2022-12-20T07:57:29;12.30;22.20
33903;DHT22;20194;50.950;5.346;2022-12-20T07:59:58;12.40;19.90
33903;DHT22;20194;50.950;5.346;2022-12-20T08:02:38;12.30;20.60
33903;DHT22;20194;50.950;5.346;2022-12-20T08:05:07;12.30;20.00
33903;DHT22;20194;50.950;5.346;2022-12-20T08:07:36;12.30;20.40
33903;DHT22;20194;50.950;5.346;2022-12-20T08:10:04;12.30;19.90
33903;DHT22;20194;50.950;5.346;2022-12-20T08:12:31;12.40;19.20
33903;DHT22;20194;50.950;5.346;2022-12-20T08:14:57;12.30;19.90
33903;DHT22;20194;50.950;5.346;2022-12-20T08:17:24;12.30;21.40
33903;DHT22;20194;50.950;5.346;2022-12-20T08:19:49;12.30;20.30
33903;DHT22;20194;50.950;5.346;2022-12-20T08:22:17;12.30;20.10
33903;DHT22;20194;50.950;5.346;2022-12-20T08:24:43;12.20;21.10
33903;DHT22;20194;50.950;5.346;2022-12-20T08:27:09;12.30;21.30
33903;DHT22;20194;50.950;5.346;2022-12-20T08:29:35;12.20;24.00
33903;DHT22;20194;50.950;5.346;2022-12-20T08:32:01;12.20;25.10
33903;DHT22;20194;50.950;5.346;2022-12-20T08:34:27;12.20;27.60
33903;DHT22;20194;50.950;5.346;2022-12-20T08:36:53;12.10;31.00
33903;DHT22;20194;50.950;5.346;2022-12-20T08:39:18;12.10;33.60
33903;DHT22;20194;50.950;5.346;2022-12-20T08:41:44;12.10;32.90
33903;DHT22;20194;50.950;5.346;2022-12-20T08:44:10;12.00;35.50
33903;DHT22;20194;50.950;5.346;2022-12-20T08:46:36;11.90;36.40
33903;DHT22;20194;50.950;5.346;2022-12-20T08:49:03;11.90;34.40
33903;DHT22;20194;50.950;5.346;2022-12-20T08:51:28;12.00;33.40
33903;DHT22;20194;50.950;5.346;2022-12-20T08:53:54;12.00;32.40
33903;DHT22;20194;50.950;5.346;2022-12-20T08:56:20;12.00;32.30
33903;DHT22;20194;50.950;5.346;2022-12-20T08:58:46;12.00;32.20
33903;DHT22;20194;50.950;5.346;2022-12-20T09:01:13;12.00;32.30
33903;DHT22;20194;50.950;5.346;2022-12-20T09:03:40;12.00;33.90
33903;DHT22;20194;50.950;5.346;2022-12-20T09:06:08;12.00;32.40
33903;DHT22;20194;50.950;5.346;2022-12-20T09:08:36;12.00;32.00
33903;DHT22;20194;50.950;5.346;2022-12-20T09:11:10;12.00;32.40
33903;DHT22;20194;50.950;5.346;2022-12-20T09:13:37;12.00;34.00
33903;DHT22;20194;50.950;5.346;2022-12-20T09:16:04;11.90;31.60
33903;DHT22;20194;50.950;5.346;2022-12-20T09:18:30;12.00;32.50
33903;DHT22;20194;50.950;5.346;2022-12-20T09:21:00;12.00;31.80
33903;DHT22;20194;50.950;5.346;2022-12-20T09:23:28;12.00;31.70
33903;DHT22;20194;50.950;5.346;2022-12-20T09:26:00;12.00;33.40
33903;DHT22;20194;50.950;5.346;2022-12-20T09:28:25;12.00;32.60
33903;DHT22;20194;50.950;5.346;2022-12-20T09:30:51;12.00;32.70
33903;DHT22;20194;50.950;5.346;2022-12-20T09:33:17;12.00;32.70
33903;DHT22;20194;50.950;5.346;2022-12-20T09:35:46;12.00;32.40
33903;DHT22;20194;50.950;5.346;2022-12-20T09:38:12;12.10;32.30
33903;DHT22;20194;50.950;5.346;2022-12-20T09:40:44;12.20;33.40
33903;DHT22;20194;50.950;5.346;2022-12-20T09:43:12;12.20;32.50
33903;DHT22;20194;50.950;5.346;2022-12-20T09:45:38;12.30;31.90
33903;DHT22;20194;50.950;5.346;2022-12-20T09:48:07;12.30;31.90
33903;DHT22;20194;50.950;5.346;2022-12-20T09:56:02;12.30;32.10
33903;DHT22;20194;50.950;5.346;2022-12-20T09:58:41;12.20;33.30
33903;DHT22;20194;50.950;5.346;2022-12-20T10:01:18;12.30;34.50
33903;DHT22;20194;50.950;5.346;2022-12-20T10:03:44;12.30;35.20
33903;DHT22;20194;50.950;5.346;2022-12-20T10:08:49;12.30;37.20
33903;DHT22;20194;50.950;5.346;2022-12-20T10:11:32;12.30;39.10
33903;DHT22;20194;50.950;5.346;2022-12-20T10:14:07;12.20;39.20
33903;DHT22;20194;50.950;5.346;2022-12-20T10:16:51;12.20;40.10
33903;DHT22;20194;50.950;5.346;2022-12-20T10:27:43;12.30;41.30
33903;DHT22;20194;50.950;5.346;2022-12-20T10:30:14;12.40;41.10
33903;DHT22;20194;50.950;5.346;2022-12-20T10:32:47;12.40;39.40
33903;DHT22;20194;50.950;5.346;2022-12-20T10:38:04;12.40;41.30
33903;DHT22;20194;50.950;5.346;2022-12-20T10:40:35;12.50;40.70
33903;DHT22;20194;50.950;5.346;2022-12-20T10:43:03;12.50;40.40
33903;DHT22;20194;50.950;5.346;2022-12-20T10:45:35;12.50;38.80
33903;DHT22;20194;50.950;5.346;2022-12-20T10:48:28;12.50;40.70
33903;DHT22;20194;50.950;5.346;2022-12-20T10:51:03;12.50;41.70
33903;DHT22;20194;50.950;5.346;2022-12-20T10:56:27;12.40;44.10
33903;DHT22;20194;50.950;5.346;2022-12-20T11:01:43;12.50;44.60
33903;DHT22;20194;50.950;5.346;2022-12-20T11:04:30;12.50;44.70
33903;DHT22;20194;50.950;5.346;2022-12-20T11:06:57;12.40;46.70
33903;DHT22;20194;50.950;5.346;2022-12-20T11:09:31;12.30;51.80
33903;DHT22;20194;50.950;5.346;2022-12-20T11:14:27;12.00;57.60
33903;DHT22;20194;50.950;5.346;2022-12-20T11:16:54;12.00;57.50
33903;DHT22;20194;50.950;5.346;2022-12-20T11:22:37;12.00;55.70
33903;DHT22;20194;50.950;5.346;2022-12-20T11:33:57;12.10;52.90
33903;DHT22;20194;50.950;5.346;2022-12-20T11:39:14;12.00;55.00
33903;DHT22;20194;50.950;5.346;2022-12-20T11:50:41;11.80;60.30
33903;DHT22;20194;50.950;5.346;2022-12-20T11:53:24;11.70;60.60
33903;DHT22;20194;50.950;5.346;2022-12-20T11:55:56;11.70;62.70
33903;DHT22;20194;50.950;5.346;2022-12-20T11:58:28;11.60;63.40
33903;DHT22;20194;50.950;5.346;2022-12-20T12:01:03;11.60;64.20
33903;DHT22;20194;50.950;5.346;2022-12-20T12:03:33;11.60;64.60
33903;DHT22;20194;50.950;5.346;2022-12-20T12:06:09;11.60;65.00
33903;DHT22;20194;50.950;5.346;2022-12-20T12:08:44;11.60;64.20
33903;DHT22;20194;50.950;5.346;2022-12-20T12:11:33;11.60;64.70
33903;DHT22;20194;50.950;5.346;2022-12-20T12:14:01;11.50;64.90
33903;DHT22;20194;50.950;5.346;2022-12-20T12:16:39;11.60;65.40
33903;DHT22;20194;50.950;5.346;2022-12-20T12:19:11;11.70;64.80
33903;DHT22;20194;50.950;5.346;2022-12-20T12:21:43;11.70;64.00
33903;DHT22;20194;50.950;5.346;2022-12-20T12:24:18;11.60;64.20
33903;DHT22;20194;50.950;5.346;2022-12-20T12:26:46;11.60;64.80
33903;DHT22;20194;50.950;5.346;2022-12-20T12:29:15;11.50;64.60
33903;DHT22;20194;50.950;5.346;2022-12-20T12:31:42;11.50;64.40
33903;DHT22;20194;50.950;5.346;2022-12-20T12:47:09;11.50;63.20
33903;DHT22;20194;50.950;5.346;2022-12-20T12:49:37;11.50;62.30
33903;DHT22;20194;50.950;5.346;2022-12-20T12:52:04;11.50;61.80
33903;DHT22;20194;50.950;5.346;2022-12-20T12:54:39;11.40;62.10
33903;DHT22;20194;50.950;5.346;2022-12-20T12:57:15;11.50;63.70
33903;DHT22;20194;50.950;5.346;2022-12-20T12:59:44;11.40;64.40
33903;DHT22;20194;50.950;5.346;2022-12-20T13:18:00;11.30;66.10
33903;DHT22;20194;50.950;5.346;2022-12-20T13:20:31;11.30;67.00
33903;DHT22;20194;50.950;5.346;2022-12-20T13:25:45;11.30;66.30
33903;DHT22;20194;50.950;5.346;2022-12-20T13:30:47;11.30;65.90
33903;DHT22;20194;50.950;5.346;2022-12-20T13:33:37;11.30;65.50
33903;DHT22;20194;50.950;5.346;2022-12-20T13:47:03;11.20;65.30
33903;DHT22;20194;50.950;5.346;2022-12-20T13:49:36;11.20;65.70
33903;DHT22;20194;50.950;5.346;2022-12-20T13:54:48;11.20;66.00
33903;DHT22;20194;50.950;5.346;2022-12-20T13:57:17;11.20;65.60
33903;DHT22;20194;50.950;5.346;2022-12-20T13:59:47;11.20;65.90
33903;DHT22;20194;50.950;5.346;2022-12-20T14:02:22;11.20;65.10
33903;DHT22;20194;50.950;5.346;2022-12-20T14:05:05;11.30;65.10
33903;DHT22;20194;50.950;5.346;2022-12-20T14:07:33;11.30;65.60
33903;DHT22;20194;50.950;5.346;2022-12-20T14:10:01;11.30;65.30
33903;DHT22;20194;50.950;5.346;2022-12-20T14:12:28;11.30;65.10
33903;DHT22;20194;50.950;5.346;2022-12-20T14:14:55;11.20;64.60
33903;DHT22;20194;50.950;5.346;2022-12-20T14:17:26;11.20;65.10
33903;DHT22;20194;50.950;5.346;2022-12-20T14:20:28;11.30;65.00
33903;DHT22;20194;50.950;5.346;2022-12-20T14:23:18;11.30;64.20
33903;DHT22;20194;50.950;5.346;2022-12-20T14:25:56;11.30;64.00
33903;DHT22;20194;50.950;5.346;2022-12-20T14:28:35;11.30;64.60
33903;DHT22;20194;50.950;5.346;2022-12-20T14:31:03;11.30;64.60
33903;DHT22;20194;50.950;5.346;2022-12-20T14:33:40;11.30;64.40
33903;DHT22;20194;50.950;5.346;2022-12-20T14:36:26;11.30;64.50
33903;DHT22;20194;50.950;5.346;2022-12-20T14:38:52;11.30;64.30
33903;DHT22;20194;50.950;5.346;2022-12-20T14:41:53;11.30;63.80
33903;DHT22;20194;50.950;5.346;2022-12-20T14:44:21;11.30;64.20
33903;DHT22;20194;50.950;5.346;2022-12-20T14:46:58;11.30;64.00
33903;DHT22;20194;50.950;5.346;2022-12-20T14:52:12;11.30;64.30
33903;DHT22;20194;50.950;5.346;2022-12-20T14:54:58;11.30;64.30
33903;DHT22;20194;50.950;5.346;2022-12-20T15:02:48;11.30;64.20
33903;DHT22;20194;50.950;5.346;2022-12-20T15:13:15;11.40;64.10
33903;DHT22;20194;50.950;5.346;2022-12-20T15:15:41;11.40;63.40
33903;DHT22;20194;50.950;5.346;2022-12-20T15:18:15;11.30;63.90
33903;DHT22;20194;50.950;5.346;2022-12-20T15:20:43;11.40;63.40
33903;DHT22;20194;50.950;5.346;2022-12-20T15:23:13;11.30;64.10
33903;DHT22;20194;50.950;5.346;2022-12-20T15:25:40;11.30;64.60
33903;DHT22;20194;50.950;5.346;2022-12-20T15:28:17;11.30;64.40
33903;DHT22;20194;50.950;5.346;2022-12-20T15:30:44;11.40;64.40
33903;DHT22;20194;50.950;5.346;2022-12-20T15:33:15;11.40;63.50
33903;DHT22;20194;50.950;5.346;2022-12-20T15:35:42;11.40;62.90
33903;DHT22;20194;50.950;5.346;2022-12-20T15:38:16;11.40;63.90
33903;DHT22;20194;50.950;5.346;2022-12-20T15:40:47;11.40;63.50
33903;DHT22;20194;50.950;5.346;2022-12-20T15:43:17;11.40;63.80
33903;DHT22;20194;50.950;5.346;2022-12-20T15:45:45;11.40;64.30
33903;DHT22;20194;50.950;5.346;2022-12-20T15:48:14;11.40;64.30
33903;DHT22;20194;50.950;5.346;2022-12-20T15:50:49;11.30;63.80
33903;DHT22;20194;50.950;5.346;2022-12-20T15:53:18;11.30;64.70
33903;DHT22;20194;50.950;5.346;2022-12-20T15:55:48;11.30;65.60
33903;DHT22;20194;50.950;5.346;2022-12-20T15:58:14;11.40;65.40
33903;DHT22;20194;50.950;5.346;2022-12-20T16:00:41;11.30;65.50
33903;DHT22;20194;50.950;5.346;2022-12-20T16:03:15;11.20;66.40
33903;DHT22;20194;50.950;5.346;2022-12-20T16:05:42;11.20;67.60
33903;DHT22;20194;50.950;5.346;2022-12-20T16:08:08;11.10;67.90
33903;DHT22;20194;50.950;5.346;2022-12-20T16:10:33;11.10;68.40
33903;DHT22;20194;50.950;5.346;2022-12-20T16:12:59;11.20;68.60
33903;DHT22;20194;50.950;5.346;2022-12-20T16:15:25;11.10;68.20
33903;DHT22;20194;50.950;5.346;2022-12-20T16:17:50;11.20;68.30
33903;DHT22;20194;50.950;5.346;2022-12-20T16:20:16;11.20;67.90
33903;DHT22;20194;50.950;5.346;2022-12-20T16:22:44;11.20;68.10
33903;DHT22;20194;50.950;5.346;2022-12-20T16:25:26;11.20;67.40
33903;DHT22;20194;50.950;5.346;2022-12-20T16:27:52;11.20;67.70
33903;DHT22;20194;50.950;5.346;2022-12-20T16:30:18;11.20;67.50
33903;DHT22;20194;50.950;5.346;2022-12-20T16:32:44;11.20;67.60
33903;DHT22;20194;50.950;5.346;2022-12-20T16:35:25;11.20;67.10
33903;DHT22;20194;50.950;5.346;2022-12-20T16:37:53;11.20;67.70
33903;DHT22;20194;50.950;5.346;2022-12-20T16:40:22;11.20;68.10
33903;DHT22;20194;50.950;5.346;2022-12-20T16:42:48;11.30;67.90
33903;DHT22;20194;50.950;5.346;2022-12-20T16:45:20;11.30;67.70
33903;DHT22;20194;50.950;5.346;2022-12-20T16:47:47;11.30;67.50
33903;DHT22;20194;50.950;5.346;2022-12-20T16:50:14;11.30;67.50
33903;DHT22;20194;50.950;5.346;2022-12-20T16:52:40;11.30;66.80
33903;DHT22;20194;50.950;5.346;2022-12-20T16:55:09;11.40;67.40
33903;DHT22;20194;50.950;5.346;2022-12-20T16:57:36;11.30;66.50
33903;DHT22;20194;50.950;5.346;2022-12-20T17:00:03;11.30;67.30
33903;DHT22;20194;50.950;5.346;2022-12-20T17:02:31;11.30;67.80
33903;DHT22;20194;50.950;5.346;2022-12-20T17:04:57;11.40;67.50
33903;DHT22;20194;50.950;5.346;2022-12-20T17:07:24;11.30;66.70
33903;DHT22;20194;50.950;5.346;2022-12-20T17:09:50;11.30;67.10
33903;DHT22;20194;50.950;5.346;2022-12-20T17:12:18;11.20;68.00
33903;DHT22;20194;50.950;5.346;2022-12-20T17:14:44;11.30;68.10
33903;DHT22;20194;50.950;5.346;2022-12-20T17:17:11;11.30;67.70
33903;DHT22;20194;50.950;5.346;2022-12-20T17:19:36;11.30;67.00
33903;DHT22;20194;50.950;5.346;2022-12-20T17:22:02;11.10;67.50
33903;DHT22;20194;50.950;5.346;2022-12-20T17:24:28;11.10;68.40
33903;DHT22;20194;50.950;5.346;2022-12-20T17:26:54;11.10;68.20
33903;DHT22;20194;50.950;5.346;2022-12-20T17:29:20;11.20;68.60
33903;DHT22;20194;50.950;5.346;2022-12-20T17:31:47;11.20;67.80
33903;DHT22;20194;50.950;5.346;2022-12-20T17:34:16;11.20;67.90
33903;DHT22;20194;50.950;5.346;2022-12-20T17:36:43;11.20;68.00
33903;DHT22;20194;50.950;5.346;2022-12-20T17:39:09;11.10;68.50
33903;DHT22;20194;50.950;5.346;2022-12-20T17:41:35;11.20;68.80
33903;DHT22;20194;50.950;5.346;2022-12-20T17:44:02;11.20;68.60
33903;DHT22;20194;50.950;5.346;2022-12-20T17:46:29;11.20;68.30
33903;DHT22;20194;50.950;5.346;2022-12-20T17:48:55;11.20;69.20
33903;DHT22;20194;50.950;5.346;2022-12-20T17:51:29;11.10;68.40
33903;DHT22;20194;50.950;5.346;2022-12-20T17:53:56;11.20;69.10